sensor_id;sensor_type;location;lat;lon;timestamp;temperature;humidity
18694;DHT22;9477;51.414;10.362;2023-02-27T00:00:20;2.80;70.20
18694;DHT22;9477;51.414;10.362;2023-02-27T00:02:24;2.80;70.40
18694;DHT22;9477;51.414;10.362;2023-02-27T00:04:27;2.70;70.60
18694;DHT22;9477;51.414;10.362;2023-02-27T00:06:30;2.70;70.40
18694;DHT22;9477;51.414;10.362;2023-02-27T00:08:33;2.60;70.50
18694;DHT22;9477;51.414;10.362;2023-02-27T00:10:36;2.70;70.50
18694;DHT22;9477;51.414;10.362;2023-02-27T00:12:38;2.60;70.40
18694;DHT22;9477;51.414;10.362;2023-02-27T00:14:43;2.50;70.50
18694;DHT22;9477;51.414;10.362;2023-02-27T00:16:46;2.40;70.80
18694;DHT22;9477;51.414;10.362;2023-02-27T00:18:48;2.50;71.00
18694;DHT22;9477;51.414;10.362;2023-02-27T00:20:51;2.50;70.80
18694;DHT22;9477;51.414;10.362;2023-02-27T00:22:54;2.40;70.60
18694;DHT22;9477;51.414;10.362;2023-02-27T00:24:57;2.40;70.60
18694;DHT22;9477;51.414;10.362;2023-02-27T00:27:00;2.30;70.60
18694;DHT22;9477;51.414;10.362;2023-02-27T00:29:03;2.30;70.70
18694;DHT22;9477;51.414;10.362;2023-02-27T00:31:07;2.30;70.70
18694;DHT22;9477;51.414;10.362;2023-02-27T00:33:10;2.20;70.80
18694;DHT22;9477;51.414;10.362;2023-02-27T00:35:13;2.20;70.80
18694;DHT22;9477;51.414;10.362;2023-02-27T00:37:16;2.20;70.60
18694;DHT22;9477;51.414;10.362;2023-02-27T00:39:19;2.10;70.50
18694;DHT22;9477;51.414;10.362;2023-02-27T00:41:22;2.00;70.80
18694;DHT22;9477;51.414;10.362;2023-02-27T00:43:26;2.00;71.00
18694;DHT22;9477;51.414;10.362;2023-02-27T00:45:29;2.00;70.90
18694;DHT22;9477;51.414;10.362;2023-02-27T00:47:34;2.10;71.00
18694;DHT22;9477;51.414;10.362;2023-02-27T00:49:37;2.10;70.80
18694;DHT22;9477;51.414;10.362;2023-02-27T00:51:39;2.00;70.50
18694;DHT22;9477;51.414;10.362;2023-02-27T00:53:42;1.90;70.70
18694;DHT22;9477;51.414;10.362;2023-02-27T00:55:45;1.80;70.90
18694;DHT22;9477;51.414;10.362;2023-02-27T00:57:48;1.70;71.00
18694;DHT22;9477;51.414;10.362;2023-02-27T00:59:51;1.80;71.10
18694;DHT22;9477;51.414;10.362;2023-02-27T01:01:54;1.80;71.20
18694;DHT22;9477;51.414;10.362;2023-02-27T01:03:58;1.90;71.10
18694;DHT22;9477;51.414;10.362;2023-02-27T01:06:01;1.90;71.00
18694;DHT22;9477;51.414;10.362;2023-02-27T01:08:04;1.80;71.10
18694;DHT22;9477;51.414;10.362;2023-02-27T01:10:08;1.80;71.10
18694;DHT22;9477;51.414;10.362;2023-02-27T01:12:12;1.80;71.10
18694;DHT22;9477;51.414;10.362;2023-02-27T01:14:15;1.70;70.90
18694;DHT22;9477;51.414;10.362;2023-02-27T01:16:18;1.60;71.50
18694;DHT22;9477;51.414;10.362;2023-02-27T01:18:20;1.60;71.50
18694;DHT22;9477;51.414;10.362;2023-02-27T01:20:25;1.50;71.70
18694;DHT22;9477;51.414;10.362;2023-02-27T01:22:28;1.50;71.70
18694;DHT22;9477;51.414;10.362;2023-02-27T01:24:31;1.50;71.70
18694;DHT22;9477;51.414;10.362;2023-02-27T01:26:34;1.50;72.00
18694;DHT22;9477;51.414;10.362;2023-02-27T01:28:37;1.50;72.00
18694;DHT22;9477;51.414;10.362;2023-02-27T01:30:40;1.40;72.10
18694;DHT22;9477;51.414;10.362;2023-02-27T01:32:43;1.50;72.00
18694;DHT22;9477;51.414;10.362;2023-02-27T01:34:46;1.50;71.70
18694;DHT22;9477;51.414;10.362;2023-02-27T01:36:50;1.50;71.50
18694;DHT22;9477;51.414;10.362;2023-02-27T01:38:53;1.50;71.30
18694;DHT22;9477;51.414;10.362;2023-02-27T01:40:56;1.50;71.10
18694;DHT22;9477;51.414;10.362;2023-02-27T01:43:01;1.50;71.00
18694;DHT22;9477;51.414;10.362;2023-02-27T01:45:22;1.40;70.80
18694;DHT22;9477;51.414;10.362;2023-02-27T01:47:27;1.40;70.90
18694;DHT22;9477;51.414;10.362;2023-02-27T01:49:32;1.40;70.80
18694;DHT22;9477;51.414;10.362;2023-02-27T01:51:38;1.40;70.90
18694;DHT22;9477;51.414;10.362;2023-02-27T01:53:45;1.20;71.10
18694;DHT22;9477;51.414;10.362;2023-02-27T01:55:50;1.30;71.30
18694;DHT22;9477;51.414;10.362;2023-02-27T01:57:55;1.10;71.70
18694;DHT22;9477;51.414;10.362;2023-02-27T01:59:58;1.00;71.50
18694;DHT22;9477;51.414;10.362;2023-02-27T02:02:02;1.00;71.80
18694;DHT22;9477;51.414;10.362;2023-02-27T02:04:13;0.90;72.00
18694;DHT22;9477;51.414;10.362;2023-02-27T02:06:19;0.70;72.40
18694;DHT22;9477;51.414;10.362;2023-02-27T02:08:24;0.60;73.80
18694;DHT22;9477;51.414;10.362;2023-02-27T02:10:30;0.70;73.20
18694;DHT22;9477;51.414;10.362;2023-02-27T02:12:37;0.80;73.10
18694;DHT22;9477;51.414;10.362;2023-02-27T02:14:40;0.90;72.70
18694;DHT22;9477;51.414;10.362;2023-02-27T02:17:10;0.90;72.60
18694;DHT22;9477;51.414;10.362;2023-02-27T02:24:46;0.90;72.80
18694;DHT22;9477;51.414;10.362;2023-02-27T02:27:02;0.90;72.90
18694;DHT22;9477;51.414;10.362;2023-02-27T02:29:35;0.80;72.50
18694;DHT22;9477;51.414;10.362;2023-02-27T02:32:02;0.90;72.50
18694;DHT22;9477;51.414;10.362;2023-02-27T02:34:54;0.70;72.40
18694;DHT22;9477;51.414;10.362;2023-02-27T02:40:02;0.60;72.70
18694;DHT22;9477;51.414;10.362;2023-02-27T02:42:13;0.50;72.90
18694;DHT22;9477;51.414;10.362;2023-02-27T02:44:23;0.60;73.00
18694;DHT22;9477;51.414;10.362;2023-02-27T02:46:34;0.60;72.80
18694;DHT22;9477;51.414;10.362;2023-02-27T02:48:45;0.70;72.90
18694;DHT22;9477;51.414;10.362;2023-02-27T02:50:53;0.70;72.70
18694;DHT22;9477;51.414;10.362;2023-02-27T02:53:03;0.80;72.60
18694;DHT22;9477;51.414;10.362;2023-02-27T02:55:15;0.70;72.60
18694;DHT22;9477;51.414;10.362;2023-02-27T02:57:24;0.70;72.60
18694;DHT22;9477;51.414;10.362;2023-02-27T02:59:33;0.80;72.50
18694;DHT22;9477;51.414;10.362;2023-02-27T03:01:40;0.80;72.50
18694;DHT22;9477;51.414;10.362;2023-02-27T03:03:48;0.80;72.30
18694;DHT22;9477;51.414;10.362;2023-02-27T03:05:55;0.80;72.10
18694;DHT22;9477;51.414;10.362;2023-02-27T03:08:03;0.70;71.90
18694;DHT22;9477;51.414;10.362;2023-02-27T03:10:09;0.70;71.80
18694;DHT22;9477;51.414;10.362;2023-02-27T03:12:18;0.70;71.70
18694;DHT22;9477;51.414;10.362;2023-02-27T03:14:26;0.70;71.70
18694;DHT22;9477;51.414;10.362;2023-02-27T03:16:33;0.60;71.40
18694;DHT22;9477;51.414;10.362;2023-02-27T03:18:41;0.60;71.60
18694;DHT22;9477;51.414;10.362;2023-02-27T03:20:46;0.60;71.50
18694;DHT22;9477;51.414;10.362;2023-02-27T03:22:58;0.50;71.70
18694;DHT22;9477;51.414;10.362;2023-02-27T03:25:07;0.40;71.80
18694;DHT22;9477;51.414;10.362;2023-02-27T03:27:13;0.30;72.10
18694;DHT22;9477;51.414;10.362;2023-02-27T03:29:21;0.30;72.10
18694;DHT22;9477;51.414;10.362;2023-02-27T03:31:31;0.30;72.10
18694;DHT22;9477;51.414;10.362;2023-02-27T03:33:38;0.30;72.10
18694;DHT22;9477;51.414;10.362;2023-02-27T03:35:48;0.40;72.20
18694;DHT22;9477;51.414;10.362;2023-02-27T03:37:57;0.40;72.00
18694;DHT22;9477;51.414;10.362;2023-02-27T03:40:13;0.40;71.90
18694;DHT22;9477;51.414;10.362;2023-02-27T03:42:29;0.30;71.90
18694;DHT22;9477;51.414;10.362;2023-02-27T03:44:40;0.40;72.10
18694;DHT22;9477;51.414;10.362;2023-02-27T03:46:46;0.40;72.10
18694;DHT22;9477;51.414;10.362;2023-02-27T03:48:48;0.30;72.00
18694;DHT22;9477;51.414;10.362;2023-02-27T03:50:52;0.20;72.20
18694;DHT22;9477;51.414;10.362;2023-02-27T03:52:55;0.20;72.40
18694;DHT22;9477;51.414;10.362;2023-02-27T03:55:02;0.10;72.80
18694;DHT22;9477;51.414;10.362;2023-02-27T03:57:08;0.20;72.80
18694;DHT22;9477;51.414;10.362;2023-02-27T03:59:17;0.20;72.70
18694;DHT22;9477;51.414;10.362;2023-02-27T04:01:20;0.10;72.80
18694;DHT22;9477;51.414;10.362;2023-02-27T04:03:23;0.10;72.80
18694;DHT22;9477;51.414;10.362;2023-02-27T04:05:27;0.20;73.00
18694;DHT22;9477;51.414;10.362;2023-02-27T04:07:37;0.10;72.90
18694;DHT22;9477;51.414;10.362;2023-02-27T04:09:57;0.20;73.20
18694;DHT22;9477;51.414;10.362;2023-02-27T04:12:14;0.00;73.60
18694;DHT22;9477;51.414;10.362;2023-02-27T04:14:38;-0.20;74.40
18694;DHT22;9477;51.414;10.362;2023-02-27T04:16:59;-0.10;74.80
18694;DHT22;9477;51.414;10.362;2023-02-27T04:19:15;0.00;74.50
18694;DHT22;9477;51.414;10.362;2023-02-27T04:21:25;-0.20;74.70
18694;DHT22;9477;51.414;10.362;2023-02-27T04:23:34;-0.20;75.00
18694;DHT22;9477;51.414;10.362;2023-02-27T04:25:58;-0.20;75.30
18694;DHT22;9477;51.414;10.362;2023-02-27T04:28:10;-0.10;75.40
18694;DHT22;9477;51.414;10.362;2023-02-27T04:30:24;-0.20;75.30
18694;DHT22;9477;51.414;10.362;2023-02-27T04:32:33;-0.30;75.70
18694;DHT22;9477;51.414;10.362;2023-02-27T04:34:41;-0.30;75.80
18694;DHT22;9477;51.414;10.362;2023-02-27T04:36:47;-0.20;75.80
18694;DHT22;9477;51.414;10.362;2023-02-27T04:38:59;-0.20;75.80
18694;DHT22;9477;51.414;10.362;2023-02-27T04:41:07;-0.10;76.10
18694;DHT22;9477;51.414;10.362;2023-02-27T04:43:14;-0.10;75.90
18694;DHT22;9477;51.414;10.362;2023-02-27T04:45:21;-0.10;76.10
18694;DHT22;9477;51.414;10.362;2023-02-27T04:47:27;0.10;76.10
18694;DHT22;9477;51.414;10.362;2023-02-27T04:49:34;0.20;75.90
18694;DHT22;9477;51.414;10.362;2023-02-27T04:51:43;0.20;75.70
18694;DHT22;9477;51.414;10.362;2023-02-27T04:53:52;0.20;75.80
18694;DHT22;9477;51.414;10.362;2023-02-27T04:56:00;0.20;76.00
18694;DHT22;9477;51.414;10.362;2023-02-27T04:58:08;0.30;75.90
18694;DHT22;9477;51.414;10.362;2023-02-27T05:00:14;0.40;75.70
18694;DHT22;9477;51.414;10.362;2023-02-27T05:02:22;0.60;75.70
18694;DHT22;9477;51.414;10.362;2023-02-27T05:04:30;0.70;75.30
18694;DHT22;9477;51.414;10.362;2023-02-27T05:06:35;0.60;74.90
18694;DHT22;9477;51.414;10.362;2023-02-27T05:08:43;0.50;75.00
18694;DHT22;9477;51.414;10.362;2023-02-27T05:10:51;0.60;75.30
18694;DHT22;9477;51.414;10.362;2023-02-27T05:12:58;0.50;75.50
18694;DHT22;9477;51.414;10.362;2023-02-27T05:15:07;0.60;75.70
18694;DHT22;9477;51.414;10.362;2023-02-27T05:17:16;0.60;76.10
18694;DHT22;9477;51.414;10.362;2023-02-27T05:19:22;0.80;76.10
18694;DHT22;9477;51.414;10.362;2023-02-27T05:21:29;0.90;75.90
18694;DHT22;9477;51.414;10.362;2023-02-27T05:23:38;1.20;76.00
18694;DHT22;9477;51.414;10.362;2023-02-27T05:25:48;1.30;75.60
18694;DHT22;9477;51.414;10.362;2023-02-27T05:27:58;1.40;75.10
18694;DHT22;9477;51.414;10.362;2023-02-27T05:30:07;1.50;75.00
18694;DHT22;9477;51.414;10.362;2023-02-27T05:32:21;1.60;74.90
18694;DHT22;9477;51.414;10.362;2023-02-27T05:34:33;1.70;74.80
18694;DHT22;9477;51.414;10.362;2023-02-27T05:36:41;1.70;74.60
18694;DHT22;9477;51.414;10.362;2023-02-27T05:38:47;1.80;74.60
18694;DHT22;9477;51.414;10.362;2023-02-27T05:40:56;1.90;74.70
18694;DHT22;9477;51.414;10.362;2023-02-27T05:43:04;1.60;74.60
18694;DHT22;9477;51.414;10.362;2023-02-27T05:45:10;1.70;75.00
18694;DHT22;9477;51.414;10.362;2023-02-27T05:47:18;1.90;75.20
18694;DHT22;9477;51.414;10.362;2023-02-27T05:49:25;1.90;74.90
18694;DHT22;9477;51.414;10.362;2023-02-27T05:51:33;1.90;74.80
18694;DHT22;9477;51.414;10.362;2023-02-27T05:53:39;2.00;74.90
18694;DHT22;9477;51.414;10.362;2023-02-27T05:55:47;2.10;74.80
18694;DHT22;9477;51.414;10.362;2023-02-27T05:57:53;2.10;74.70
18694;DHT22;9477;51.414;10.362;2023-02-27T06:00:03;2.10;74.80
18694;DHT22;9477;51.414;10.362;2023-02-27T06:02:07;2.20;74.80
18694;DHT22;9477;51.414;10.362;2023-02-27T06:04:11;2.30;74.90
18694;DHT22;9477;51.414;10.362;2023-02-27T06:06:16;2.30;74.80
18694;DHT22;9477;51.414;10.362;2023-02-27T06:08:21;2.30;74.70
18694;DHT22;9477;51.414;10.362;2023-02-27T06:10:24;2.40;74.80
18694;DHT22;9477;51.414;10.362;2023-02-27T06:12:27;2.40;74.70
18694;DHT22;9477;51.414;10.362;2023-02-27T06:14:30;2.40;74.60
18694;DHT22;9477;51.414;10.362;2023-02-27T06:16:33;2.40;74.60
18694;DHT22;9477;51.414;10.362;2023-02-27T06:18:38;2.50;74.70
18694;DHT22;9477;51.414;10.362;2023-02-27T06:20:43;2.50;74.70
18694;DHT22;9477;51.414;10.362;2023-02-27T06:22:46;2.50;74.60
18694;DHT22;9477;51.414;10.362;2023-02-27T06:24:50;2.60;74.70
18694;DHT22;9477;51.414;10.362;2023-02-27T06:26:53;2.60;74.70
18694;DHT22;9477;51.414;10.362;2023-02-27T06:28:56;2.60;74.60
18694;DHT22;9477;51.414;10.362;2023-02-27T06:30:59;2.60;74.70
18694;DHT22;9477;51.414;10.362;2023-02-27T06:33:02;2.60;74.70
18694;DHT22;9477;51.414;10.362;2023-02-27T06:35:06;2.70;74.50
18694;DHT22;9477;51.414;10.362;2023-02-27T06:37:09;2.70;74.60
18694;DHT22;9477;51.414;10.362;2023-02-27T06:39:12;2.70;74.70
18694;DHT22;9477;51.414;10.362;2023-02-27T06:41:16;2.70;74.80
18694;DHT22;9477;51.414;10.362;2023-02-27T06:43:19;2.70;74.80
18694;DHT22;9477;51.414;10.362;2023-02-27T06:45:23;2.50;74.70
18694;DHT22;9477;51.414;10.362;2023-02-27T06:47:26;2.30;74.90
18694;DHT22;9477;51.414;10.362;2023-02-27T06:49:29;2.20;75.20
18694;DHT22;9477;51.414;10.362;2023-02-27T06:51:32;2.30;75.70
18694;DHT22;9477;51.414;10.362;2023-02-27T06:53:35;2.40;76.50
18694;DHT22;9477;51.414;10.362;2023-02-27T06:55:37;2.60;75.70
18694;DHT22;9477;51.414;10.362;2023-02-27T06:57:43;2.40;75.50
18694;DHT22;9477;51.414;10.362;2023-02-27T06:59:47;2.10;75.70
18694;DHT22;9477;51.414;10.362;2023-02-27T07:01:50;2.00;76.20
18694;DHT22;9477;51.414;10.362;2023-02-27T07:03:53;2.00;76.40
18694;DHT22;9477;51.414;10.362;2023-02-27T07:05:56;2.10;76.60
18694;DHT22;9477;51.414;10.362;2023-02-27T07:07:59;2.20;76.70
18694;DHT22;9477;51.414;10.362;2023-02-27T07:10:04;2.30;76.50
18694;DHT22;9477;51.414;10.362;2023-02-27T07:12:08;2.20;76.20
18694;DHT22;9477;51.414;10.362;2023-02-27T07:14:12;2.20;76.40
18694;DHT22;9477;51.414;10.362;2023-02-27T07:16:17;2.30;76.60
18694;DHT22;9477;51.414;10.362;2023-02-27T07:18:20;2.40;76.70
18694;DHT22;9477;51.414;10.362;2023-02-27T07:20:23;2.40;76.80
18694;DHT22;9477;51.414;10.362;2023-02-27T07:22:26;2.50;76.90
18694;DHT22;9477;51.414;10.362;2023-02-27T07:24:29;2.70;77.10
18694;DHT22;9477;51.414;10.362;2023-02-27T07:26:31;2.90;77.00
18694;DHT22;9477;51.414;10.362;2023-02-27T07:28:35;3.00;76.90
18694;DHT22;9477;51.414;10.362;2023-02-27T07:30:39;2.70;76.40
18694;DHT22;9477;51.414;10.362;2023-02-27T07:32:42;2.50;76.50
18694;DHT22;9477;51.414;10.362;2023-02-27T07:34:45;2.50;77.20
18694;DHT22;9477;51.414;10.362;2023-02-27T07:36:47;2.50;77.20
18694;DHT22;9477;51.414;10.362;2023-02-27T07:38:50;2.40;76.90
18694;DHT22;9477;51.414;10.362;2023-02-27T07:40:53;2.20;77.10
18694;DHT22;9477;51.414;10.362;2023-02-27T07:42:56;2.30;77.30
18694;DHT22;9477;51.414;10.362;2023-02-27T07:44:59;2.40;77.30
18694;DHT22;9477;51.414;10.362;2023-02-27T07:47:03;2.50;77.50
18694;DHT22;9477;51.414;10.362;2023-02-27T07:49:06;2.60;77.10
18694;DHT22;9477;51.414;10.362;2023-02-27T07:51:15;2.70;76.80
18694;DHT22;9477;51.414;10.362;2023-02-27T07:53:18;2.90;77.20
18694;DHT22;9477;51.414;10.362;2023-02-27T07:55:21;2.80;76.20
18694;DHT22;9477;51.414;10.362;2023-02-27T07:57:24;2.50;75.70
18694;DHT22;9477;51.414;10.362;2023-02-27T07:59:26;2.80;76.10
18694;DHT22;9477;51.414;10.362;2023-02-27T08:01:30;2.90;76.60
18694;DHT22;9477;51.414;10.362;2023-02-27T08:03:34;3.10;76.40
18694;DHT22;9477;51.414;10.362;2023-02-27T08:05:36;3.00;76.20
18694;DHT22;9477;51.414;10.362;2023-02-27T08:07:39;2.70;75.60
18694;DHT22;9477;51.414;10.362;2023-02-27T08:09:43;2.80;76.30
18694;DHT22;9477;51.414;10.362;2023-02-27T08:11:46;2.50;76.00
18694;DHT22;9477;51.414;10.362;2023-02-27T08:13:49;2.80;76.40
18694;DHT22;9477;51.414;10.362;2023-02-27T08:16:02;2.30;75.70
18694;DHT22;9477;51.414;10.362;2023-02-27T08:18:05;2.10;76.50
18694;DHT22;9477;51.414;10.362;2023-02-27T08:20:11;2.00;76.70
18694;DHT22;9477;51.414;10.362;2023-02-27T08:22:14;2.10;77.40
18694;DHT22;9477;51.414;10.362;2023-02-27T08:24:17;1.90;77.70
18694;DHT22;9477;51.414;10.362;2023-02-27T08:26:20;1.90;78.20
18694;DHT22;9477;51.414;10.362;2023-02-27T08:28:23;1.50;78.20
18694;DHT22;9477;51.414;10.362;2023-02-27T08:30:29;1.50;79.20
18694;DHT22;9477;51.414;10.362;2023-02-27T08:32:33;1.60;79.40
18694;DHT22;9477;51.414;10.362;2023-02-27T08:34:36;1.70;79.20
18694;DHT22;9477;51.414;10.362;2023-02-27T08:36:40;1.90;79.20
18694;DHT22;9477;51.414;10.362;2023-02-27T08:38:43;1.90;78.80
18694;DHT22;9477;51.414;10.362;2023-02-27T08:40:46;1.90;78.70
18694;DHT22;9477;51.414;10.362;2023-02-27T08:42:50;2.00;78.60
18694;DHT22;9477;51.414;10.362;2023-02-27T08:44:53;2.00;78.80
18694;DHT22;9477;51.414;10.362;2023-02-27T08:46:57;2.40;79.10
18694;DHT22;9477;51.414;10.362;2023-02-27T08:48:59;2.80;78.50
18694;DHT22;9477;51.414;10.362;2023-02-27T08:51:02;2.70;77.70
18694;DHT22;9477;51.414;10.362;2023-02-27T08:53:07;2.90;77.60
18694;DHT22;9477;51.414;10.362;2023-02-27T08:55:10;3.00;78.00
18694;DHT22;9477;51.414;10.362;2023-02-27T08:57:13;3.60;78.70
18694;DHT22;9477;51.414;10.362;2023-02-27T08:59:16;4.10;77.40
18694;DHT22;9477;51.414;10.362;2023-02-27T09:01:19;4.40;76.30
18694;DHT22;9477;51.414;10.362;2023-02-27T09:03:22;3.40;74.30
18694;DHT22;9477;51.414;10.362;2023-02-27T09:05:29;3.50;75.60
18694;DHT22;9477;51.414;10.362;2023-02-27T09:07:36;3.20;76.30
18694;DHT22;9477;51.414;10.362;2023-02-27T09:09:40;3.20;77.50
18694;DHT22;9477;51.414;10.362;2023-02-27T09:11:42;3.30;77.90
18694;DHT22;9477;51.414;10.362;2023-02-27T09:13:46;3.10;77.60
18694;DHT22;9477;51.414;10.362;2023-02-27T09:15:49;3.60;78.60
18694;DHT22;9477;51.414;10.362;2023-02-27T09:17:52;3.80;78.30
18694;DHT22;9477;51.414;10.362;2023-02-27T09:19:57;4.20;78.20
18694;DHT22;9477;51.414;10.362;2023-02-27T09:21:59;4.00;76.90
18694;DHT22;9477;51.414;10.362;2023-02-27T09:24:03;4.50;77.80
18694;DHT22;9477;51.414;10.362;2023-02-27T09:26:21;4.70;76.90
18694;DHT22;9477;51.414;10.362;2023-02-27T09:28:43;5.20;76.60
18694;DHT22;9477;51.414;10.362;2023-02-27T09:30:46;5.20;75.50
18694;DHT22;9477;51.414;10.362;2023-02-27T09:32:49;5.30;74.60
18694;DHT22;9477;51.414;10.362;2023-02-27T09:34:52;5.40;74.60
18694;DHT22;9477;51.414;10.362;2023-02-27T09:36:58;5.60;74.00
18694;DHT22;9477;51.414;10.362;2023-02-27T09:39:01;5.40;72.50
18694;DHT22;9477;51.414;10.362;2023-02-27T09:41:05;5.30;72.60
18694;DHT22;9477;51.414;10.362;2023-02-27T09:43:14;5.40;73.40
18694;DHT22;9477;51.414;10.362;2023-02-27T09:45:21;5.10;72.90
18694;DHT22;9477;51.414;10.362;2023-02-27T09:47:29;5.10;73.50
18694;DHT22;9477;51.414;10.362;2023-02-27T09:49:48;5.20;73.20
18694;DHT22;9477;51.414;10.362;2023-02-27T09:51:53;4.90;72.50
18694;DHT22;9477;51.414;10.362;2023-02-27T09:53:59;5.00;73.40
18694;DHT22;9477;51.414;10.362;2023-02-27T09:56:07;4.90;72.90
18694;DHT22;9477;51.414;10.362;2023-02-27T09:58:26;4.70;73.00
18694;DHT22;9477;51.414;10.362;2023-02-27T10:00:40;5.30;75.10
18694;DHT22;9477;51.414;10.362;2023-02-27T10:02:54;5.80;75.50
18694;DHT22;9477;51.414;10.362;2023-02-27T10:05:02;6.40;74.90
18694;DHT22;9477;51.414;10.362;2023-02-27T10:07:12;6.90;74.70
18694;DHT22;9477;51.414;10.362;2023-02-27T10:09:27;7.20;72.10
18694;DHT22;9477;51.414;10.362;2023-02-27T10:11:35;7.40;71.70
18694;DHT22;9477;51.414;10.362;2023-02-27T10:13:53;7.50;70.70
18694;DHT22;9477;51.414;10.362;2023-02-27T10:15:58;7.60;70.60
18694;DHT22;9477;51.414;10.362;2023-02-27T10:18:06;7.70;70.70
18694;DHT22;9477;51.414;10.362;2023-02-27T10:20:30;7.90;71.00
18694;DHT22;9477;51.414;10.362;2023-02-27T10:22:37;8.30;70.70
18694;DHT22;9477;51.414;10.362;2023-02-27T10:24:45;8.60;70.70
18694;DHT22;9477;51.414;10.362;2023-02-27T10:26:51;8.60;68.80
18694;DHT22;9477;51.414;10.362;2023-02-27T10:28:56;8.60;68.60
18694;DHT22;9477;51.414;10.362;2023-02-27T10:30:59;8.80;69.40
18694;DHT22;9477;51.414;10.362;2023-02-27T10:33:07;8.90;69.60
18694;DHT22;9477;51.414;10.362;2023-02-27T10:35:26;8.90;68.90
18694;DHT22;9477;51.414;10.362;2023-02-27T10:37:30;8.80;68.20
18694;DHT22;9477;51.414;10.362;2023-02-27T10:39:43;8.80;69.10
18694;DHT22;9477;51.414;10.362;2023-02-27T10:41:47;8.70;68.80
18694;DHT22;9477;51.414;10.362;2023-02-27T10:43:57;8.70;68.90
18694;DHT22;9477;51.414;10.362;2023-02-27T10:46:01;8.90;69.30
18694;DHT22;9477;51.414;10.362;2023-02-27T10:48:05;9.10;69.30
18694;DHT22;9477;51.414;10.362;2023-02-27T10:50:20;9.10;68.30
18694;DHT22;9477;51.414;10.362;2023-02-27T10:52:23;8.90;66.70
18694;DHT22;9477;51.414;10.362;2023-02-27T10:54:25;8.80;66.30
18694;DHT22;9477;51.414;10.362;2023-02-27T10:56:30;8.80;66.70
18694;DHT22;9477;51.414;10.362;2023-02-27T10:58:34;8.80;66.90
18694;DHT22;9477;51.414;10.362;2023-02-27T11:00:44;9.00;67.20
18694;DHT22;9477;51.414;10.362;2023-02-27T11:02:49;8.70;65.70
18694;DHT22;9477;51.414;10.362;2023-02-27T11:04:56;8.60;66.40
18694;DHT22;9477;51.414;10.362;2023-02-27T11:07:02;8.60;66.30
18694;DHT22;9477;51.414;10.362;2023-02-27T11:09:18;8.40;65.50
18694;DHT22;9477;51.414;10.362;2023-02-27T11:11:27;8.30;65.70
18694;DHT22;9477;51.414;10.362;2023-02-27T11:13:31;7.90;64.80
18694;DHT22;9477;51.414;10.362;2023-02-27T11:15:35;7.80;65.40
18694;DHT22;9477;51.414;10.362;2023-02-27T11:17:40;7.80;66.40
18694;DHT22;9477;51.414;10.362;2023-02-27T11:19:43;7.90;66.70
18694;DHT22;9477;51.414;10.362;2023-02-27T11:21:59;8.00;66.80
18694;DHT22;9477;51.414;10.362;2023-02-27T11:24:05;8.20;66.50
18694;DHT22;9477;51.414;10.362;2023-02-27T11:26:12;8.40;66.60
18694;DHT22;9477;51.414;10.362;2023-02-27T11:28:22;8.60;66.80
18694;DHT22;9477;51.414;10.362;2023-02-27T11:30:26;8.80;66.50
18694;DHT22;9477;51.414;10.362;2023-02-27T11:32:35;8.70;65.20
18694;DHT22;9477;51.414;10.362;2023-02-27T11:34:46;8.90;65.70
18694;DHT22;9477;51.414;10.362;2023-02-27T11:36:51;8.90;66.00
18694;DHT22;9477;51.414;10.362;2023-02-27T11:38:56;9.00;64.90
18694;DHT22;9477;51.414;10.362;2023-02-27T11:41:00;8.80;63.80
18694;DHT22;9477;51.414;10.362;2023-02-27T11:43:13;8.70;63.80
18694;DHT22;9477;51.414;10.362;2023-02-27T11:45:28;8.70;64.40
18694;DHT22;9477;51.414;10.362;2023-02-27T11:47:55;8.70;64.80
18694;DHT22;9477;51.414;10.362;2023-02-27T11:52:47;8.60;64.60
18694;DHT22;9477;51.414;10.362;2023-02-27T11:54:53;8.80;65.00
18694;DHT22;9477;51.414;10.362;2023-02-27T11:56:59;9.00;64.80
18694;DHT22;9477;51.414;10.362;2023-02-27T11:59:15;9.20;64.90
18694;DHT22;9477;51.414;10.362;2023-02-27T12:01:24;9.30;64.00
18694;DHT22;9477;51.414;10.362;2023-02-27T12:03:34;9.50;64.80
18694;DHT22;9477;51.414;10.362;2023-02-27T12:05:43;9.80;64.70
18694;DHT22;9477;51.414;10.362;2023-02-27T12:07:52;9.80;63.20
18694;DHT22;9477;51.414;10.362;2023-02-27T12:10:01;9.70;62.50
18694;DHT22;9477;51.414;10.362;2023-02-27T12:12:13;9.70;63.40
18694;DHT22;9477;51.414;10.362;2023-02-27T12:14:24;9.60;61.40
18694;DHT22;9477;51.414;10.362;2023-02-27T12:16:31;9.50;61.50
18694;DHT22;9477;51.414;10.362;2023-02-27T12:18:39;9.30;60.00
18694;DHT22;9477;51.414;10.362;2023-02-27T12:20:50;9.40;61.40
18694;DHT22;9477;51.414;10.362;2023-02-27T12:22:56;9.20;60.30
18694;DHT22;9477;51.414;10.362;2023-02-27T12:25:03;9.00;60.10
18694;DHT22;9477;51.414;10.362;2023-02-27T12:27:15;9.10;61.70
18694;DHT22;9477;51.414;10.362;2023-02-27T12:29:28;9.30;62.00
18694;DHT22;9477;51.414;10.362;2023-02-27T12:31:41;9.50;61.60
18694;DHT22;9477;51.414;10.362;2023-02-27T12:33:49;9.70;61.80
18694;DHT22;9477;51.414;10.362;2023-02-27T12:35:58;9.80;61.90
18694;DHT22;9477;51.414;10.362;2023-02-27T12:38:04;9.80;61.20
18694;DHT22;9477;51.414;10.362;2023-02-27T12:40:14;9.80;61.00
18694;DHT22;9477;51.414;10.362;2023-02-27T12:42:37;9.70;60.90
18694;DHT22;9477;51.414;10.362;2023-02-27T12:44:57;9.80;61.50
18694;DHT22;9477;51.414;10.362;2023-02-27T12:47:13;9.70;60.90
18694;DHT22;9477;51.414;10.362;2023-02-27T12:49:33;9.70;61.00
18694;DHT22;9477;51.414;10.362;2023-02-27T12:51:51;9.80;60.90
18694;DHT22;9477;51.414;10.362;2023-02-27T12:54:13;10.00;60.00
18694;DHT22;9477;51.414;10.362;2023-02-27T12:56:19;10.30;60.50
18694;DHT22;9477;51.414;10.362;2023-02-27T12:58:31;10.60;60.50
18694;DHT22;9477;51.414;10.362;2023-02-27T13:00:43;10.50;59.30
18694;DHT22;9477;51.414;10.362;2023-02-27T13:02:57;10.60;59.80
18694;DHT22;9477;51.414;10.362;2023-02-27T13:05:12;10.60;59.30
18694;DHT22;9477;51.414;10.362;2023-02-27T13:07:23;10.70;59.90
18694;DHT22;9477;51.414;10.362;2023-02-27T13:09:33;10.70;60.00
18694;DHT22;9477;51.414;10.362;2023-02-27T13:11:50;10.60;59.50
18694;DHT22;9477;51.414;10.362;2023-02-27T13:14:01;10.40;58.90
18694;DHT22;9477;51.414;10.362;2023-02-27T13:16:12;10.40;58.30
18694;DHT22;9477;51.414;10.362;2023-02-27T13:18:27;10.50;58.60
18694;DHT22;9477;51.414;10.362;2023-02-27T13:20:37;10.40;58.40
18694;DHT22;9477;51.414;10.362;2023-02-27T13:22:49;10.30;58.20
18694;DHT22;9477;51.414;10.362;2023-02-27T13:24:59;10.30;58.80
18694;DHT22;9477;51.414;10.362;2023-02-27T13:27:09;10.20;58.90
18694;DHT22;9477;51.414;10.362;2023-02-27T13:29:19;10.00;58.60
18694;DHT22;9477;51.414;10.362;2023-02-27T13:31:31;9.90;59.80
18694;DHT22;9477;51.414;10.362;2023-02-27T13:33:42;10.00;58.90
18694;DHT22;9477;51.414;10.362;2023-02-27T13:35:50;10.20;58.80
18694;DHT22;9477;51.414;10.362;2023-02-27T13:37:58;10.40;58.80
18694;DHT22;9477;51.414;10.362;2023-02-27T13:40:28;10.50;58.30
18694;DHT22;9477;51.414;10.362;2023-02-27T13:42:54;10.60;58.00
18694;DHT22;9477;51.414;10.362;2023-02-27T13:44:58;10.70;57.60
18694;DHT22;9477;51.414;10.362;2023-02-27T13:47:36;10.70;57.20